createdAt,value
2022-10-18T00:00:37.374Z,5.73
2022-10-18T00:03:05.837Z,6.10
2022-10-18T00:05:34.263Z,6.13
2022-10-18T00:08:02.747Z,5.77
2022-10-18T00:10:32.417Z,6.30
2022-10-18T00:13:00.776Z,6.43
2022-10-18T00:15:29.115Z,7.27
2022-10-18T00:17:57.553Z,6.00
2022-10-18T00:20:26.099Z,5.80
2022-10-18T00:22:54.389Z,6.40
2022-10-18T00:25:22.747Z,5.50
2022-10-18T00:27:52.566Z,6.30
2022-10-18T00:30:21.083Z,6.30
2022-10-18T00:32:49.482Z,6.87
2022-10-18T00:35:17.963Z,6.13
2022-10-18T00:37:46.501Z,6.00
2022-10-18T00:40:14.931Z,5.90
2022-10-18T00:42:43.261Z,6.50
2022-10-18T00:45:23.097Z,5.63
2022-10-18T00:47:52.751Z,5.83
2022-10-18T00:50:21.424Z,6.03
2022-10-18T00:52:50.860Z,6.10
2022-10-18T00:55:19.217Z,6.30
2022-10-18T00:57:47.625Z,6.10
2022-10-18T01:00:16.270Z,6.17
2022-10-18T01:02:46.342Z,6.33
2022-10-18T01:05:14.789Z,5.63
2022-10-18T01:07:48.325Z,6.60
2022-10-18T01:10:20.099Z,6.50
2022-10-18T01:12:49.992Z,6.63
2022-10-18T01:15:18.620Z,6.60
2022-10-18T01:17:51.174Z,6.60
2022-10-18T01:20:24.348Z,6.83
2022-10-18T01:22:52.925Z,7.40
2022-10-18T01:25:24.971Z,6.40
2022-10-18T01:27:55.611Z,6.47
2022-10-18T01:30:30.651Z,6.60
2022-10-18T01:33:00.032Z,6.37
2022-10-18T01:35:30.681Z,7.27
2022-10-18T01:37:59.446Z,6.33
2022-10-18T01:40:27.758Z,6.90
2022-10-18T01:42:56.353Z,6.80
2022-10-18T01:45:24.865Z,6.67
2022-10-18T01:47:54.801Z,7.00
2022-10-18T01:50:29.565Z,6.53
2022-10-18T01:52:58.203Z,6.60
2022-10-18T01:55:27.535Z,6.63
2022-10-18T01:57:58.586Z,7.13
2022-10-18T02:00:27.947Z,6.40
2022-10-18T02:02:58.701Z,6.43
2022-10-18T02:05:29.467Z,5.93
2022-10-18T02:08:12.216Z,6.03
2022-10-18T02:10:48.132Z,5.87
2022-10-18T02:13:17.296Z,6.47
2022-10-18T02:15:46.395Z,6.20
2022-10-18T02:18:18.162Z,5.53
2022-10-18T02:20:46.531Z,5.80
2022-10-18T02:23:14.944Z,5.87
2022-10-18T02:25:43.387Z,5.47
2022-10-18T02:28:11.971Z,5.23
2022-10-18T02:30:42.250Z,5.00
2022-10-18T02:33:11.560Z,5.60
2022-10-18T02:35:41.916Z,5.23
2022-10-18T02:38:10.490Z,5.47
2022-10-18T02:40:38.816Z,5.83
2022-10-18T02:43:07.493Z,5.20
2022-10-18T02:45:35.955Z,5.33
2022-10-18T02:48:04.365Z,5.60
2022-10-18T02:50:32.813Z,4.90
2022-10-18T02:53:02.561Z,5.57
2022-10-18T02:55:30.920Z,5.37
2022-10-18T02:57:59.525Z,5.30
2022-10-18T03:00:27.922Z,4.93
2022-10-18T03:02:56.258Z,4.73
2022-10-18T03:05:24.643Z,5.40
2022-10-18T03:07:53.117Z,4.70
2022-10-18T03:10:22.915Z,4.70
2022-10-18T03:12:51.449Z,5.60
2022-10-18T03:15:19.818Z,4.60
2022-10-18T03:17:48.263Z,5.40
2022-10-18T03:20:16.671Z,5.27
2022-10-18T03:22:44.962Z,5.23
2022-10-18T03:25:13.465Z,4.50
2022-10-18T03:27:43.167Z,4.93
2022-10-18T03:30:13.490Z,5.10
2022-10-18T03:32:41.848Z,5.07
2022-10-18T03:35:10.602Z,4.83
2022-10-18T03:37:38.912Z,4.87
2022-10-18T03:40:08.001Z,5.07
2022-10-18T03:42:36.399Z,5.17
2022-10-18T03:45:06.413Z,4.77
2022-10-18T03:47:34.778Z,4.20
2022-10-18T03:50:03.158Z,4.77
2022-10-18T03:52:31.819Z,4.50
2022-10-18T03:55:00.303Z,4.90
2022-10-18T03:57:28.662Z,5.30
2022-10-18T03:59:57.019Z,4.87
2022-10-18T04:02:26.974Z,5.13
2022-10-18T04:04:55.456Z,5.67
2022-10-18T04:07:23.831Z,6.07
2022-10-18T04:09:52.241Z,6.13
2022-10-18T04:12:20.521Z,6.40
2022-10-18T04:14:49.064Z,6.17
2022-10-18T04:17:17.415Z,5.50
2022-10-18T04:19:47.821Z,6.20
2022-10-18T04:22:16.245Z,6.00
2022-10-18T04:24:44.636Z,6.63
2022-10-18T04:27:13.030Z,6.13
2022-10-18T04:29:41.354Z,5.57
2022-10-18T04:32:09.722Z,5.87
2022-10-18T04:34:38.111Z,5.60
2022-10-18T04:37:07.867Z,5.40
2022-10-18T04:39:36.214Z,5.80
2022-10-18T04:42:04.564Z,5.87
2022-10-18T04:44:32.843Z,6.10
2022-10-18T04:47:01.201Z,5.53
2022-10-18T04:49:29.503Z,4.43
2022-10-18T04:51:58.164Z,5.03
2022-10-18T04:54:28.709Z,5.10
2022-10-18T04:56:57.091Z,4.50
2022-10-18T04:59:25.444Z,4.20
2022-10-18T05:01:53.949Z,4.57
2022-10-18T05:04:22.434Z,4.07
2022-10-18T05:06:50.886Z,4.33
2022-10-18T05:09:19.512Z,4.10
2022-10-18T05:11:49.282Z,4.03
2022-10-18T05:14:17.745Z,3.50
2022-10-18T05:16:46.035Z,3.20
2022-10-18T05:19:14.472Z,4.00
2022-10-18T05:21:42.922Z,3.20
2022-10-18T05:24:14.058Z,3.37
2022-10-18T05:26:42.443Z,3.90
2022-10-18T05:29:12.655Z,3.90
2022-10-18T05:31:41.071Z,3.80
2022-10-18T05:34:09.517Z,3.80
2022-10-18T05:36:37.999Z,3.53
2022-10-18T05:39:06.597Z,3.57
2022-10-18T05:41:35.191Z,3.30
2022-10-18T05:44:06.662Z,3.70
2022-10-18T05:46:36.416Z,3.37
2022-10-18T05:49:04.784Z,4.37
2022-10-18T05:51:33.165Z,4.50
2022-10-18T05:54:01.515Z,4.10
2022-10-18T05:56:29.871Z,4.33
2022-10-18T05:58:59.259Z,4.10
2022-10-18T06:01:27.624Z,4.17
2022-10-18T06:03:57.503Z,3.90
2022-10-18T06:06:25.945Z,3.80
2022-10-18T06:08:54.813Z,4.33
2022-10-18T06:11:23.511Z,3.90
2022-10-18T06:13:52.171Z,4.20
2022-10-18T06:16:21.750Z,4.67
2022-10-18T06:18:50.258Z,4.40
2022-10-18T06:21:19.953Z,4.27
2022-10-18T06:23:50.142Z,4.50
2022-10-18T06:26:18.496Z,4.10
2022-10-18T06:28:46.985Z,3.90
2022-10-18T06:31:16.009Z,3.80
2022-10-18T06:33:45.645Z,3.50
2022-10-18T06:36:14.769Z,4.27
2022-10-18T06:38:44.486Z,4.20
2022-10-18T06:41:12.868Z,4.40
2022-10-18T06:43:41.229Z,3.90
2022-10-18T06:46:09.736Z,4.43
2022-10-18T06:49:28.794Z,4.00
2022-10-18T06:52:00.324Z,3.60
2022-10-18T06:54:30.084Z,3.97
2022-10-18T06:56:59.035Z,3.93
2022-10-18T06:59:30.407Z,4.90
2022-10-18T07:02:02.862Z,5.60
2022-10-18T07:04:31.396Z,5.60
2022-10-18T07:07:05.689Z,4.63
2022-10-18T07:09:37.446Z,4.47
2022-10-18T07:12:06.239Z,4.90
2022-10-18T07:14:35.193Z,5.03
2022-10-18T07:17:09.801Z,4.67
2022-10-18T07:19:38.423Z,4.60
2022-10-18T07:22:06.887Z,4.30
2022-10-18T07:24:37.326Z,4.60
2022-10-18T07:27:05.828Z,4.07
2022-10-18T07:29:45.243Z,3.90
2022-10-18T07:32:14.315Z,4.27
2022-10-18T07:34:43.738Z,4.47
2022-10-18T07:37:12.437Z,4.50
2022-10-18T07:39:42.391Z,4.10
2022-10-18T07:42:10.849Z,4.47
2022-10-18T07:44:39.412Z,4.30
2022-10-18T07:47:07.859Z,4.73
2022-10-18T07:49:36.870Z,4.90
2022-10-18T07:52:05.649Z,4.80
2022-10-18T07:54:36.680Z,4.60
2022-10-18T07:57:07.344Z,4.93
2022-10-18T07:59:35.994Z,4.47
2022-10-18T08:02:07.081Z,4.57
2022-10-18T08:04:38.441Z,4.40
2022-10-18T08:07:07.215Z,4.70
2022-10-18T08:09:38.745Z,4.67
2022-10-18T08:12:08.619Z,4.57
2022-10-18T08:14:38.363Z,4.73
2022-10-18T08:17:07.207Z,4.90
2022-10-18T08:19:38.208Z,4.80
2022-10-18T08:22:06.852Z,5.03
2022-10-18T08:24:35.402Z,5.60
2022-10-18T08:27:08.803Z,4.83
2022-10-18T08:29:41.838Z,4.80
2022-10-18T08:32:10.397Z,4.70
2022-10-18T08:37:12.558Z,4.80
2022-10-18T08:39:48.544Z,4.30
2022-10-18T08:42:34.537Z,5.23
2022-10-18T08:45:12.641Z,4.73
2022-10-18T08:47:59.749Z,4.07
2022-10-18T08:50:29.054Z,4.63
2022-10-18T08:52:59.355Z,3.97
2022-10-18T08:55:39.352Z,4.03
2022-10-18T08:58:15.343Z,3.67
2022-10-18T09:00:45.184Z,3.77
2022-10-18T09:03:27.212Z,3.20
2022-10-18T09:05:56.844Z,2.87
2022-10-18T09:08:29.745Z,2.80
2022-10-18T09:11:01.708Z,2.67
2022-10-18T09:13:40.147Z,3.17
2022-10-18T09:16:09.734Z,2.67
2022-10-18T09:18:41.324Z,3.00
2022-10-18T09:21:14.694Z,2.83
2022-10-18T09:23:44.433Z,2.87
2022-10-18T09:26:21.222Z,3.13
2022-10-18T09:29:00.020Z,2.70
2022-10-18T09:31:30.743Z,2.57
2022-10-18T09:34:01.888Z,2.30
2022-10-18T09:36:35.782Z,2.30
2022-10-18T09:39:05.384Z,2.57
2022-10-18T09:41:35.475Z,1.90
2022-10-18T09:44:06.990Z,2.13
2022-10-18T09:46:36.365Z,1.93
2022-10-18T09:49:05.289Z,2.23
2022-10-18T09:51:36.414Z,2.20
2022-10-18T09:54:10.427Z,1.70
2022-10-18T09:56:41.876Z,2.00
2022-10-18T09:59:25.301Z,1.90
2022-10-18T10:01:54.161Z,2.40
2022-10-18T10:04:22.577Z,2.10
2022-10-18T10:06:51.383Z,1.83
2022-10-18T10:09:20.046Z,2.53
2022-10-18T10:11:48.683Z,1.63
2022-10-18T10:14:19.666Z,1.80
2022-10-18T10:16:52.277Z,1.83
2022-10-18T10:19:21.335Z,1.50
2022-10-18T10:21:49.833Z,1.57
2022-10-18T10:24:25.006Z,1.47
2022-10-18T10:27:02.789Z,1.50
2022-10-18T10:29:51.403Z,1.67
2022-10-18T10:32:20.886Z,1.70
2022-10-18T10:34:49.296Z,1.47
2022-10-18T10:37:25.706Z,1.87
2022-10-18T10:40:20.324Z,1.83
2022-10-18T10:42:59.999Z,1.40
2022-10-18T10:45:44.186Z,2.23
2022-10-18T10:48:15.777Z,1.37
2022-10-18T10:50:55.319Z,1.00
2022-10-18T10:53:34.845Z,1.50
2022-10-18T10:56:03.479Z,1.60
2022-10-18T10:58:32.237Z,2.30
2022-10-18T11:01:10.570Z,1.00
2022-10-18T11:03:39.876Z,1.33
2022-10-18T11:06:12.056Z,1.40
2022-10-18T11:08:41.543Z,1.50
2022-10-18T11:11:20.683Z,1.17
2022-10-18T11:14:07.327Z,1.27
2022-10-18T11:16:44.502Z,1.33
2022-10-18T11:19:13.717Z,1.33
2022-10-18T11:21:42.237Z,1.37
2022-10-18T11:24:10.908Z,1.40
2022-10-18T11:26:42.886Z,1.77
2022-10-18T11:29:18.697Z,1.20
2022-10-18T11:31:49.487Z,1.13
2022-10-18T11:34:21.535Z,1.63
2022-10-18T11:37:15.837Z,1.53
2022-10-18T11:39:48.412Z,1.10
2022-10-18T11:42:18.755Z,1.50
2022-10-18T11:44:48.883Z,1.33
2022-10-18T11:47:20.027Z,1.60
2022-10-18T11:49:52.097Z,1.33
2022-10-18T11:52:21.801Z,1.20
2022-10-18T11:55:00.999Z,1.13
2022-10-18T11:57:36.069Z,1.20
2022-10-18T12:00:06.295Z,1.20
2022-10-18T12:02:56.613Z,1.10
2022-10-18T12:05:26.587Z,1.43
2022-10-18T12:07:56.503Z,1.53
2022-10-18T12:10:39.270Z,1.47
2022-10-18T12:13:20.000Z,1.20
2022-10-18T12:15:48.520Z,1.63
2022-10-18T12:18:18.613Z,1.80
2022-10-18T12:20:49.295Z,1.27
2022-10-18T12:23:22.364Z,1.30
2022-10-18T12:25:53.581Z,1.53
2022-10-18T12:28:26.037Z,1.27
2022-10-18T12:30:55.731Z,1.30
2022-10-18T12:33:28.626Z,1.63
2022-10-18T12:36:02.344Z,1.47
2022-10-18T12:38:31.236Z,1.20
2022-10-18T12:40:59.938Z,1.40
2022-10-18T12:43:32.583Z,1.40
2022-10-18T12:46:01.496Z,1.50
2022-10-18T12:48:36.214Z,1.63
2022-10-18T12:51:07.881Z,1.63
2022-10-18T12:53:36.667Z,1.33
2022-10-18T12:56:25.196Z,1.40
2022-10-18T12:58:54.893Z,1.10
2022-10-18T13:01:25.335Z,1.23
2022-10-18T13:03:55.667Z,1.10
2022-10-18T13:06:28.883Z,1.30
2022-10-18T13:09:18.391Z,1.60
2022-10-18T13:11:47.497Z,1.50
2022-10-18T13:14:23.214Z,1.60
2022-10-18T13:16:53.319Z,1.40
2022-10-18T13:19:24.350Z,1.57
2022-10-18T13:21:57.002Z,1.07
2022-10-18T13:24:27.253Z,1.10
2022-10-18T13:27:17.482Z,1.37
2022-10-18T13:29:54.564Z,1.20
2022-10-18T13:32:25.569Z,1.00
2022-10-18T13:34:53.987Z,1.40
2022-10-18T13:37:30.556Z,1.10
2022-10-18T13:40:20.075Z,1.10
2022-10-18T13:42:48.643Z,1.13
2022-10-18T13:45:37.438Z,1.07
2022-10-18T13:48:24.650Z,0.93
2022-10-18T13:50:53.231Z,1.23
2022-10-18T13:53:39.432Z,1.40
2022-10-18T13:56:12.553Z,1.60
2022-10-18T13:58:53.873Z,1.58
2022-10-18T14:01:37.681Z,1.60
2022-10-18T14:04:18.541Z,1.58
2022-10-18T14:06:50.768Z,1.52
2022-10-18T14:09:26.307Z,1.73
2022-10-18T14:12:13.551Z,1.13
2022-10-18T14:14:43.163Z,1.50
2022-10-18T14:17:17.920Z,1.13
2022-10-18T14:19:46.797Z,1.27
2022-10-18T14:22:15.786Z,1.60
2022-10-18T14:24:47.451Z,1.33
2022-10-18T14:27:19.984Z,1.37
2022-10-18T14:29:50.137Z,1.33
2022-10-18T14:32:26.155Z,1.33
2022-10-18T14:35:14.392Z,1.30
2022-10-18T14:37:45.938Z,1.80
2022-10-18T14:40:30.602Z,1.73
2022-10-18T14:43:06.327Z,1.70
2022-10-18T14:45:38.293Z,1.50
2022-10-18T14:48:10.267Z,1.50
2022-10-18T14:50:40.720Z,1.60
2022-10-18T14:53:09.431Z,1.50
2022-10-18T14:55:39.066Z,1.70
2022-10-18T14:58:11.722Z,1.70
2022-10-18T15:00:41.931Z,1.53
2022-10-18T15:03:17.086Z,1.43
2022-10-18T15:05:56.141Z,1.50
2022-10-18T15:08:24.840Z,1.63
2022-10-18T15:10:55.996Z,1.83
2022-10-18T15:13:26.929Z,1.70
2022-10-18T15:15:55.587Z,1.60
2022-10-18T15:18:24.488Z,1.50
2022-10-18T15:21:25.982Z,1.70
2022-10-18T15:23:54.977Z,1.40
2022-10-18T15:26:24.101Z,1.60
2022-10-18T15:29:00.488Z,1.80
2022-10-18T15:31:31.718Z,1.30
2022-10-18T15:34:09.517Z,1.60
2022-10-18T15:36:37.971Z,1.57
2022-10-18T15:39:07.431Z,1.73
2022-10-18T15:41:41.759Z,1.43
2022-10-18T15:44:16.894Z,1.80
2022-10-18T15:46:46.126Z,1.83
2022-10-18T15:49:35.343Z,1.97
2022-10-18T15:52:18.680Z,2.33
2022-10-18T15:57:20.399Z,1.70
2022-10-18T15:59:53.314Z,1.87
2022-10-18T16:02:21.673Z,1.67
2022-10-18T16:04:50.006Z,2.10
2022-10-18T16:07:18.670Z,1.93
2022-10-18T16:09:47.307Z,1.60
2022-10-18T16:12:15.836Z,1.50
2022-10-18T16:14:44.308Z,1.90
2022-10-18T16:17:17.074Z,1.93
2022-10-18T16:19:45.580Z,1.87
2022-10-18T16:24:48.035Z,1.70
2022-10-18T16:27:16.563Z,2.07
2022-10-18T16:29:44.864Z,4.07
2022-10-18T16:32:14.656Z,4.03
2022-10-18T16:34:43.032Z,2.37
2022-10-18T16:37:11.519Z,1.90
2022-10-18T16:39:39.978Z,1.87
2022-10-18T16:42:08.621Z,1.90
2022-10-18T16:44:37.097Z,2.87
2022-10-18T16:47:05.445Z,2.30
2022-10-18T16:49:35.167Z,2.33
2022-10-18T16:52:03.751Z,2.17
2022-10-18T16:54:32.040Z,2.00
2022-10-18T16:57:00.391Z,2.13
2022-10-18T16:59:32.247Z,2.53
2022-10-18T17:02:04.769Z,2.10
2022-10-18T17:04:33.214Z,2.53
2022-10-18T17:07:03.163Z,2.43
2022-10-18T17:09:31.906Z,2.13
2022-10-18T17:12:00.278Z,2.50
2022-10-18T17:14:28.829Z,2.47
2022-10-18T17:16:57.532Z,3.07
2022-10-18T17:19:26.095Z,3.07
2022-10-18T17:22:00.168Z,3.43
2022-10-18T17:24:32.106Z,3.73
2022-10-18T17:27:00.582Z,3.37
2022-10-18T17:29:28.988Z,3.40
2022-10-18T17:31:57.264Z,3.70
2022-10-18T17:34:25.865Z,4.07
2022-10-18T17:36:54.306Z,3.20
2022-10-18T17:39:22.667Z,3.07
2022-10-18T17:41:52.604Z,2.80
2022-10-18T17:44:20.833Z,3.33
2022-10-18T17:46:49.264Z,4.27
2022-10-18T17:49:17.608Z,3.50
2022-10-18T17:51:46.549Z,4.30
2022-10-18T17:54:14.964Z,3.80
2022-10-18T17:56:45.153Z,3.30
2022-10-18T17:59:14.875Z,3.57
2022-10-18T18:01:43.254Z,3.90
2022-10-18T18:04:11.727Z,4.07
2022-10-18T18:06:59.879Z,4.53
2022-10-18T18:09:30.746Z,5.33
2022-10-18T18:11:59.349Z,5.63
2022-10-18T18:14:29.411Z,5.60
2022-10-18T18:16:57.693Z,6.40
2022-10-18T18:19:26.192Z,6.60
2022-10-18T18:21:55.072Z,5.90
2022-10-18T18:24:24.777Z,5.23
2022-10-18T18:26:53.565Z,6.37
2022-10-18T18:29:22.275Z,6.27
2022-10-18T18:31:52.089Z,5.20
2022-10-18T18:34:22.062Z,5.63
2022-10-18T18:36:51.899Z,6.07
2022-10-18T18:39:21.279Z,5.57
2022-10-18T18:41:50.273Z,6.90
2022-10-18T18:44:18.750Z,7.23
2022-10-18T18:46:47.045Z,7.90
2022-10-18T18:49:16.858Z,7.90
2022-10-18T18:51:45.270Z,8.17
2022-10-18T18:54:17.118Z,7.83
2022-10-18T18:56:45.769Z,8.07
2022-10-18T18:59:14.456Z,8.57
2022-10-18T19:01:42.910Z,8.47
2022-10-18T19:04:11.537Z,7.20
2022-10-18T19:06:41.733Z,7.23
2022-10-18T19:09:18.910Z,7.60
2022-10-18T19:11:47.736Z,7.73
2022-10-18T19:14:16.158Z,7.40
2022-10-18T19:16:47.570Z,7.00
2022-10-18T19:19:16.329Z,7.10
2022-10-18T19:21:46.563Z,7.10
2022-10-18T19:24:15.082Z,7.17
2022-10-18T19:26:47.475Z,7.47
2022-10-18T19:29:17.868Z,7.00
2022-10-18T19:31:49.416Z,7.00
2022-10-18T19:34:18.509Z,6.50
2022-10-18T19:36:48.627Z,7.13
2022-10-18T19:39:31.157Z,7.57
2022-10-18T19:42:00.402Z,6.73
2022-10-18T19:44:31.987Z,6.53
2022-10-18T19:47:00.301Z,6.20
2022-10-18T19:49:29.079Z,6.33
2022-10-18T19:51:58.746Z,6.20
2022-10-18T19:54:27.119Z,6.87
2022-10-18T19:56:55.424Z,5.57
2022-10-18T19:59:24.092Z,5.70
2022-10-18T20:02:01.653Z,5.23
2022-10-18T20:04:34.181Z,5.90
2022-10-18T20:07:04.484Z,6.03
2022-10-18T20:09:33.980Z,6.40
2022-10-18T20:12:02.454Z,6.77
2022-10-18T20:14:31.018Z,5.40
2022-10-18T20:16:59.669Z,5.07
2022-10-18T20:19:45.347Z,5.20
2022-10-18T20:22:38.412Z,4.77
2022-10-18T20:25:07.021Z,4.83
2022-10-18T20:27:35.728Z,4.97
2022-10-18T20:30:08.911Z,4.80
2022-10-18T20:32:39.078Z,5.43
2022-10-18T20:35:07.976Z,4.50
2022-10-18T20:37:37.857Z,5.13
2022-10-18T20:40:06.496Z,4.90
2022-10-18T20:42:34.828Z,5.00
2022-10-18T20:45:09.798Z,5.13
2022-10-18T20:47:38.254Z,5.10
2022-10-18T20:50:07.277Z,5.23
2022-10-18T20:52:35.702Z,5.63
2022-10-18T20:55:05.676Z,4.93
2022-10-18T20:57:36.446Z,5.47
2022-10-18T21:00:05.518Z,5.43
2022-10-18T21:02:35.120Z,5.43
2022-10-18T21:05:03.466Z,4.90
2022-10-18T21:07:32.233Z,5.50
2022-10-18T21:10:00.793Z,5.00
2022-10-18T21:12:31.073Z,5.27
2022-10-18T21:14:59.783Z,4.87
2022-10-18T21:17:28.320Z,4.60
2022-10-18T21:19:56.609Z,5.10
2022-10-18T21:22:24.916Z,5.33
2022-10-18T21:24:53.216Z,5.50
2022-10-18T21:27:21.892Z,5.07
2022-10-18T21:29:51.780Z,5.30
2022-10-18T21:32:20.345Z,5.27
2022-10-18T21:34:48.735Z,5.17
2022-10-18T21:37:17.036Z,4.53
2022-10-18T21:39:46.460Z,5.30
2022-10-18T21:42:14.995Z,5.00
2022-10-18T21:44:43.418Z,5.23
2022-10-18T21:47:13.225Z,5.63
2022-10-18T21:49:41.568Z,5.33
2022-10-18T21:52:09.847Z,5.50
2022-10-18T21:54:38.360Z,5.30
2022-10-18T21:57:06.691Z,5.63
2022-10-18T21:59:35.341Z,5.03
2022-10-18T22:02:12.595Z,5.53
2022-10-18T22:04:42.986Z,11.17
2022-10-18T22:07:11.318Z,10.07
2022-10-18T22:09:39.746Z,9.10
2022-10-18T22:12:10.765Z,7.20
2022-10-18T22:14:39.420Z,6.07
2022-10-18T22:17:10.736Z,5.43
2022-10-18T22:19:39.200Z,5.80
2022-10-18T22:22:09.043Z,5.97
2022-10-18T22:24:37.375Z,5.53
2022-10-18T22:27:05.920Z,6.10
2022-10-18T22:29:34.415Z,6.93
2022-10-18T22:32:02.809Z,5.53
2022-10-18T22:34:31.218Z,5.90
2022-10-18T22:37:00.808Z,5.67
2022-10-18T22:39:32.951Z,6.07
2022-10-18T22:42:01.288Z,5.87
2022-10-18T22:44:29.719Z,5.77
2022-10-18T22:46:58.054Z,5.70
2022-10-18T22:49:26.505Z,5.87
2022-10-18T22:51:55.016Z,5.20
2022-10-18T22:54:23.507Z,7.30
2022-10-18T22:56:53.333Z,5.70
2022-10-18T22:59:21.633Z,5.50
2022-10-18T23:01:50.260Z,5.67
2022-10-18T23:04:18.574Z,5.17
2022-10-18T23:06:46.973Z,6.17
2022-10-18T23:09:15.304Z,5.80
2022-10-18T23:11:43.716Z,6.20
2022-10-18T23:14:13.473Z,5.67
2022-10-18T23:16:41.819Z,4.67
2022-10-18T23:19:10.097Z,5.73
2022-10-18T23:21:38.504Z,4.97
2022-10-18T23:24:07.099Z,5.43
2022-10-18T23:26:35.396Z,5.37
2022-10-18T23:29:03.796Z,6.40
2022-10-18T23:31:59.023Z,4.60
2022-10-18T23:34:43.252Z,5.00
2022-10-18T23:37:16.601Z,5.03
2022-10-18T23:39:45.912Z,4.47
2022-10-18T23:42:21.188Z,5.20
2022-10-18T23:44:58.745Z,5.07
2022-10-18T23:47:41.717Z,5.00
2022-10-18T23:50:10.783Z,5.10
2022-10-18T23:52:39.118Z,5.03
2022-10-18T23:55:08.100Z,5.63
2022-10-18T23:57:36.620Z,4.93
